< < Back
Terminal Aerodrome Forecast


Current Version              Previous Versions:   1  2  3  4  5  6  7  8  9  

Terminal Aerodrome Forecast

186
FTUS44 KOHX 251720
TAFBNA
TAF
KBNA 251720Z 2518/2618 26005KT P6SM VCTS SCT040CB BKN070
     FM260000 19003KT P6SM BKN080 BKN250
     FM261000 00000KT 5SM BR SCT100=



Latest METAR

739
SAUS70 KWBC 252200 RRL
MTRBNA
METAR KBNA 252153Z 25006KT 10SM FEW060 SCT090 BKN150 BKN250 32/21 A2998
RMK AO2 SLP143 T03170206


USA.gov is the U.S. government's official web portal to all federal, state and local government web resources and services.